sensor_id;sensor_type;location;lat;lon;timestamp;pressure;altitude;pressure_sealevel;temperature;humidity
26657;BME280;14279;50.010;8.260;2022-11-15T00:00:05;100155.91;;;9.86;89.93
26657;BME280;14279;50.010;8.260;2022-11-15T00:02:31;100148.69;;;9.91;89.48
26657;BME280;14279;50.010;8.260;2022-11-15T00:04:56;100149.47;;;9.93;89.49
26657;BME280;14279;50.010;8.260;2022-11-15T00:07:21;100147.88;;;9.90;89.86
26657;BME280;14279;50.010;8.260;2022-11-15T00:09:46;100155.22;;;10.00;89.82
26657;BME280;14279;50.010;8.260;2022-11-15T00:12:12;100150.03;;;10.00;89.50
26657;BME280;14279;50.010;8.260;2022-11-15T00:14:37;100149.97;;;10.01;89.61
26657;BME280;14279;50.010;8.260;2022-11-15T00:17:02;100145.81;;;9.97;90.33
26657;BME280;14279;50.010;8.260;2022-11-15T00:19:27;100142.09;;;10.03;89.76
26657;BME280;14279;50.010;8.260;2022-11-15T00:21:53;100152.03;;;9.95;89.86
26657;BME280;14279;50.010;8.260;2022-11-15T00:24:18;100144.41;;;9.90;90.18
26657;BME280;14279;50.010;8.260;2022-11-15T00:26:43;100136.56;;;9.91;89.62
26657;BME280;14279;50.010;8.260;2022-11-15T00:29:09;100135.00;;;9.87;89.80
26657;BME280;14279;50.010;8.260;2022-11-15T00:31:34;100139.22;;;9.90;89.87
26657;BME280;14279;50.010;8.260;2022-11-15T00:33:59;100133.09;;;9.91;89.74
26657;BME280;14279;50.010;8.260;2022-11-15T00:36:24;100121.72;;;9.93;90.00
26657;BME280;14279;50.010;8.260;2022-11-15T00:38:49;100119.56;;;9.84;90.38
26657;BME280;14279;50.010;8.260;2022-11-15T00:41:15;100115.28;;;9.83;90.06
26657;BME280;14279;50.010;8.260;2022-11-15T00:43:40;100114.44;;;9.63;90.76
26657;BME280;14279;50.010;8.260;2022-11-15T00:46:08;100129.03;;;9.66;90.85
26657;BME280;14279;50.010;8.260;2022-11-15T00:48:34;100126.03;;;9.75;90.13
26657;BME280;14279;50.010;8.260;2022-11-15T00:50:59;100122.53;;;9.76;90.62
26657;BME280;14279;50.010;8.260;2022-11-15T00:53:25;100128.72;;;9.74;91.06
26657;BME280;14279;50.010;8.260;2022-11-15T00:55:50;100118.91;;;9.79;91.34
26657;BME280;14279;50.010;8.260;2022-11-15T00:58:15;100113.03;;;9.75;91.65
26657;BME280;14279;50.010;8.260;2022-11-15T01:00:40;100115.34;;;9.82;91.51
26657;BME280;14279;50.010;8.260;2022-11-15T01:03:06;100111.84;;;9.83;91.14
26657;BME280;14279;50.010;8.260;2022-11-15T01:05:31;100112.25;;;9.92;90.56
26657;BME280;14279;50.010;8.260;2022-11-15T01:07:56;100108.88;;;9.90;90.29
26657;BME280;14279;50.010;8.260;2022-11-15T01:10:22;100124.38;;;9.92;90.44
26657;BME280;14279;50.010;8.260;2022-11-15T01:12:48;100111.19;;;9.97;90.18
26657;BME280;14279;50.010;8.260;2022-11-15T01:15:14;100111.03;;;10.00;90.15
26657;BME280;14279;50.010;8.260;2022-11-15T01:17:39;100113.28;;;10.07;89.80
26657;BME280;14279;50.010;8.260;2022-11-15T01:20:05;100108.91;;;10.08;89.73
26657;BME280;14279;50.010;8.260;2022-11-15T01:22:31;100106.31;;;10.08;89.61
26657;BME280;14279;50.010;8.260;2022-11-15T01:24:56;100108.06;;;10.07;89.55
26657;BME280;14279;50.010;8.260;2022-11-15T01:27:21;100112.28;;;10.10;89.52
26657;BME280;14279;50.010;8.260;2022-11-15T01:29:47;100105.47;;;10.07;89.22
26657;BME280;14279;50.010;8.260;2022-11-15T01:32:12;100110.44;;;10.12;89.17
26657;BME280;14279;50.010;8.260;2022-11-15T01:34:37;100101.19;;;10.06;89.65
26657;BME280;14279;50.010;8.260;2022-11-15T01:37:03;100102.66;;;10.12;89.52
26657;BME280;14279;50.010;8.260;2022-11-15T01:39:28;100098.91;;;10.18;89.55
26657;BME280;14279;50.010;8.260;2022-11-15T01:41:54;100093.84;;;10.15;89.14
26657;BME280;14279;50.010;8.260;2022-11-15T01:47:02;100083.13;;;10.21;89.33
26657;BME280;14279;50.010;8.260;2022-11-15T01:49:30;100098.75;;;10.21;89.46
26657;BME280;14279;50.010;8.260;2022-11-15T01:51:57;100089.78;;;10.27;89.04
26657;BME280;14279;50.010;8.260;2022-11-15T01:54:24;100082.00;;;10.27;89.38
26657;BME280;14279;50.010;8.260;2022-11-15T01:56:53;100081.31;;;10.23;89.34
26657;BME280;14279;50.010;8.260;2022-11-15T01:59:21;100080.31;;;10.26;89.16
26657;BME280;14279;50.010;8.260;2022-11-15T02:01:47;100067.38;;;10.24;89.27
26657;BME280;14279;50.010;8.260;2022-11-15T02:04:24;100066.53;;;10.23;89.42
26657;BME280;14279;50.010;8.260;2022-11-15T02:06:50;100059.06;;;10.17;89.92
26657;BME280;14279;50.010;8.260;2022-11-15T02:09:17;100057.50;;;10.13;90.53
26657;BME280;14279;50.010;8.260;2022-11-15T02:11:43;100051.78;;;10.06;90.68
26657;BME280;14279;50.010;8.260;2022-11-15T02:14:10;100045.72;;;10.06;91.07
26657;BME280;14279;50.010;8.260;2022-11-15T02:16:54;100055.44;;;10.02;91.42
26657;BME280;14279;50.010;8.260;2022-11-15T02:19:57;100059.00;;;10.00;92.21
26657;BME280;14279;50.010;8.260;2022-11-15T02:26:02;100053.06;;;9.98;91.81
26657;BME280;14279;50.010;8.260;2022-11-15T02:28:44;100053.75;;;10.01;91.97
26657;BME280;14279;50.010;8.260;2022-11-15T02:37:02;100043.88;;;10.08;91.49
26657;BME280;14279;50.010;8.260;2022-11-15T02:39:39;100040.50;;;10.06;91.61
26657;BME280;14279;50.010;8.260;2022-11-15T02:42:31;100041.38;;;10.06;91.85
26657;BME280;14279;50.010;8.260;2022-11-15T02:45:20;100036.94;;;10.08;91.84
26657;BME280;14279;50.010;8.260;2022-11-15T02:47:50;100033.34;;;10.11;91.45
26657;BME280;14279;50.010;8.260;2022-11-15T02:50:19;100030.59;;;10.14;91.46
26657;BME280;14279;50.010;8.260;2022-11-15T02:52:45;100035.63;;;10.17;91.40
26657;BME280;14279;50.010;8.260;2022-11-15T02:58:15;100031.13;;;10.03;91.28
26657;BME280;14279;50.010;8.260;2022-11-15T03:01:02;100030.41;;;10.00;92.20
26657;BME280;14279;50.010;8.260;2022-11-15T03:03:35;100025.06;;;10.03;91.89
26657;BME280;14279;50.010;8.260;2022-11-15T03:06:19;100026.88;;;10.01;91.96
26657;BME280;14279;50.010;8.260;2022-11-15T03:09:02;100023.16;;;10.06;91.82
26657;BME280;14279;50.010;8.260;2022-11-15T03:11:29;100028.13;;;10.11;91.66
26657;BME280;14279;50.010;8.260;2022-11-15T03:19:31;100026.69;;;10.05;91.96
26657;BME280;14279;50.010;8.260;2022-11-15T03:21:59;100025.91;;;10.03;92.31
26657;BME280;14279;50.010;8.260;2022-11-15T03:24:28;100024.91;;;10.06;92.49
26657;BME280;14279;50.010;8.260;2022-11-15T03:26:57;100018.03;;;10.05;92.48
26657;BME280;14279;50.010;8.260;2022-11-15T03:29:29;100020.19;;;9.97;93.00
26657;BME280;14279;50.010;8.260;2022-11-15T03:32:01;100018.66;;;9.92;93.08
26657;BME280;14279;50.010;8.260;2022-11-15T03:37:10;100017.00;;;9.90;93.42
26657;BME280;14279;50.010;8.260;2022-11-15T03:39:37;100019.41;;;9.95;93.57
26657;BME280;14279;50.010;8.260;2022-11-15T03:42:22;100019.56;;;9.91;93.77
26657;BME280;14279;50.010;8.260;2022-11-15T03:45:13;100021.88;;;9.98;93.50
26657;BME280;14279;50.010;8.260;2022-11-15T03:47:47;100020.56;;;10.06;93.30
26657;BME280;14279;50.010;8.260;2022-11-15T03:50:17;100021.91;;;10.14;92.89
26657;BME280;14279;50.010;8.260;2022-11-15T03:52:45;100021.56;;;10.21;92.35
26657;BME280;14279;50.010;8.260;2022-11-15T03:55:14;100028.22;;;10.27;92.05
26657;BME280;14279;50.010;8.260;2022-11-15T03:57:40;100030.72;;;10.29;91.67
26657;BME280;14279;50.010;8.260;2022-11-15T04:00:06;100027.34;;;10.27;91.72
26657;BME280;14279;50.010;8.260;2022-11-15T04:02:31;100029.38;;;10.21;91.75
26657;BME280;14279;50.010;8.260;2022-11-15T04:04:56;100023.25;;;10.22;91.74
26657;BME280;14279;50.010;8.260;2022-11-15T04:07:22;100026.97;;;10.17;91.88
26657;BME280;14279;50.010;8.260;2022-11-15T04:09:47;100028.38;;;10.24;91.81
26657;BME280;14279;50.010;8.260;2022-11-15T04:12:35;100030.97;;;10.24;91.68
26657;BME280;14279;50.010;8.260;2022-11-15T04:15:12;100027.28;;;10.28;91.67
26657;BME280;14279;50.010;8.260;2022-11-15T04:17:39;100027.66;;;10.38;91.16
26657;BME280;14279;50.010;8.260;2022-11-15T04:20:29;100035.34;;;10.41;91.08
26657;BME280;14279;50.010;8.260;2022-11-15T04:23:14;100023.47;;;10.53;90.57
26657;BME280;14279;50.010;8.260;2022-11-15T04:26:00;100023.53;;;10.51;90.41
26657;BME280;14279;50.010;8.260;2022-11-15T04:28:26;100020.88;;;10.53;90.12
26657;BME280;14279;50.010;8.260;2022-11-15T04:30:52;100017.09;;;10.59;89.51
26657;BME280;14279;50.010;8.260;2022-11-15T04:33:17;100006.53;;;10.62;89.39
26657;BME280;14279;50.010;8.260;2022-11-15T04:35:43;100005.69;;;10.61;89.65
26657;BME280;14279;50.010;8.260;2022-11-15T04:38:09;100001.94;;;10.67;89.27
26657;BME280;14279;50.010;8.260;2022-11-15T04:40:36;99992.59;;;10.63;89.29
26657;BME280;14279;50.010;8.260;2022-11-15T04:43:02;99999.19;;;10.52;90.08
26657;BME280;14279;50.010;8.260;2022-11-15T04:45:27;99995.47;;;10.58;90.15
26657;BME280;14279;50.010;8.260;2022-11-15T04:47:52;99999.19;;;10.70;89.66
26657;BME280;14279;50.010;8.260;2022-11-15T04:50:18;100000.09;;;10.69;89.25
26657;BME280;14279;50.010;8.260;2022-11-15T04:52:50;99995.56;;;10.73;89.38
26657;BME280;14279;50.010;8.260;2022-11-15T04:55:16;99993.22;;;10.68;88.93
26657;BME280;14279;50.010;8.260;2022-11-15T04:57:42;99994.72;;;10.72;89.43
26657;BME280;14279;50.010;8.260;2022-11-15T05:00:11;99987.59;;;10.76;88.95
26657;BME280;14279;50.010;8.260;2022-11-15T05:02:36;99979.03;;;10.74;89.56
26657;BME280;14279;50.010;8.260;2022-11-15T05:05:20;99974.63;;;10.74;89.37
26657;BME280;14279;50.010;8.260;2022-11-15T05:07:46;99975.81;;;10.68;89.55
26657;BME280;14279;50.010;8.260;2022-11-15T05:10:11;99974.13;;;10.67;90.60
26657;BME280;14279;50.010;8.260;2022-11-15T05:12:37;99962.97;;;10.65;90.24
26657;BME280;14279;50.010;8.260;2022-11-15T05:15:03;99954.94;;;10.52;90.95
26657;BME280;14279;50.010;8.260;2022-11-15T05:17:28;99964.22;;;10.58;90.79
26657;BME280;14279;50.010;8.260;2022-11-15T05:19:53;99956.16;;;10.63;90.39
26657;BME280;14279;50.010;8.260;2022-11-15T05:22:19;99948.66;;;10.57;90.82
26657;BME280;14279;50.010;8.260;2022-11-15T05:24:45;99951.56;;;10.68;91.03
26657;BME280;14279;50.010;8.260;2022-11-15T05:27:10;99958.09;;;10.75;90.71
26657;BME280;14279;50.010;8.260;2022-11-15T05:29:35;99963.91;;;10.80;90.73
26657;BME280;14279;50.010;8.260;2022-11-15T05:32:03;99961.06;;;10.85;90.30
26657;BME280;14279;50.010;8.260;2022-11-15T05:34:29;99954.75;;;10.89;90.30
26657;BME280;14279;50.010;8.260;2022-11-15T05:36:54;99954.00;;;10.87;89.81
26657;BME280;14279;50.010;8.260;2022-11-15T05:39:20;99955.25;;;10.96;89.75
26657;BME280;14279;50.010;8.260;2022-11-15T05:41:49;99960.47;;;10.96;89.45
26657;BME280;14279;50.010;8.260;2022-11-15T05:44:19;99958.81;;;10.95;89.80
26657;BME280;14279;50.010;8.260;2022-11-15T05:46:48;99956.22;;;10.95;89.54
26657;BME280;14279;50.010;8.260;2022-11-15T05:49:16;99957.53;;;11.02;89.17
26657;BME280;14279;50.010;8.260;2022-11-15T05:51:44;99954.69;;;11.07;88.96
26657;BME280;14279;50.010;8.260;2022-11-15T05:54:11;99966.72;;;11.09;88.63
26657;BME280;14279;50.010;8.260;2022-11-15T05:56:36;99963.00;;;11.13;88.68
26657;BME280;14279;50.010;8.260;2022-11-15T05:59:02;99983.75;;;11.15;88.62
26657;BME280;14279;50.010;8.260;2022-11-15T06:01:28;99981.16;;;11.15;88.72
26657;BME280;14279;50.010;8.260;2022-11-15T06:03:53;99978.38;;;11.18;88.28
26657;BME280;14279;50.010;8.260;2022-11-15T06:06:19;99976.63;;;11.19;88.23
26657;BME280;14279;50.010;8.260;2022-11-15T06:08:44;99976.44;;;11.22;87.86
26657;BME280;14279;50.010;8.260;2022-11-15T06:11:09;99969.75;;;11.18;88.23
26657;BME280;14279;50.010;8.260;2022-11-15T06:13:34;99957.13;;;11.10;89.27
26657;BME280;14279;50.010;8.260;2022-11-15T06:16:00;99961.56;;;11.08;89.95
26657;BME280;14279;50.010;8.260;2022-11-15T06:18:26;99964.44;;;11.03;89.82
26657;BME280;14279;50.010;8.260;2022-11-15T06:20:51;99964.09;;;10.93;90.15
26657;BME280;14279;50.010;8.260;2022-11-15T06:23:16;99965.09;;;10.91;90.24
26657;BME280;14279;50.010;8.260;2022-11-15T06:25:42;99964.94;;;10.94;90.01
26657;BME280;14279;50.010;8.260;2022-11-15T06:28:07;99963.66;;;11.01;89.71
26657;BME280;14279;50.010;8.260;2022-11-15T06:30:33;99957.47;;;11.04;89.63
26657;BME280;14279;50.010;8.260;2022-11-15T06:33:03;99969.72;;;11.02;89.86
26657;BME280;14279;50.010;8.260;2022-11-15T06:35:29;99966.97;;;11.05;89.33
26657;BME280;14279;50.010;8.260;2022-11-15T06:37:55;99969.22;;;11.11;89.43
26657;BME280;14279;50.010;8.260;2022-11-15T06:40:20;99973.34;;;11.15;88.85
26657;BME280;14279;50.010;8.260;2022-11-15T06:42:46;99969.97;;;11.29;88.27
26657;BME280;14279;50.010;8.260;2022-11-15T06:45:11;99973.00;;;11.37;87.57
26657;BME280;14279;50.010;8.260;2022-11-15T06:47:46;99974.25;;;11.46;86.78
26657;BME280;14279;50.010;8.260;2022-11-15T06:50:11;99968.78;;;11.51;86.46
26657;BME280;14279;50.010;8.260;2022-11-15T06:52:37;99973.53;;;11.58;86.00
26657;BME280;14279;50.010;8.260;2022-11-15T06:55:02;99968.09;;;11.63;85.42
26657;BME280;14279;50.010;8.260;2022-11-15T06:57:27;99979.34;;;11.64;85.57
26657;BME280;14279;50.010;8.260;2022-11-15T06:59:53;99984.72;;;11.61;85.54
26657;BME280;14279;50.010;8.260;2022-11-15T07:02:18;99981.88;;;11.65;85.40
26657;BME280;14279;50.010;8.260;2022-11-15T07:04:43;99978.72;;;11.75;84.99
26657;BME280;14279;50.010;8.260;2022-11-15T07:07:09;99977.16;;;11.72;85.22
26657;BME280;14279;50.010;8.260;2022-11-15T07:09:34;99959.69;;;11.58;86.05
26657;BME280;14279;50.010;8.260;2022-11-15T07:12:00;99971.88;;;11.57;86.47
26657;BME280;14279;50.010;8.260;2022-11-15T07:14:25;99980.19;;;11.64;86.31
26657;BME280;14279;50.010;8.260;2022-11-15T07:16:50;99975.16;;;11.61;86.45
26657;BME280;14279;50.010;8.260;2022-11-15T07:19:15;99977.84;;;11.60;86.41
26657;BME280;14279;50.010;8.260;2022-11-15T07:21:41;99978.44;;;11.49;87.04
26657;BME280;14279;50.010;8.260;2022-11-15T07:24:06;99972.13;;;11.53;86.49
26657;BME280;14279;50.010;8.260;2022-11-15T07:26:31;99970.94;;;11.58;86.04
26657;BME280;14279;50.010;8.260;2022-11-15T07:28:56;99978.84;;;11.57;86.37
26657;BME280;14279;50.010;8.260;2022-11-15T07:31:22;99980.44;;;11.60;86.00
26657;BME280;14279;50.010;8.260;2022-11-15T07:33:47;99977.50;;;11.66;85.81
26657;BME280;14279;50.010;8.260;2022-11-15T07:36:12;99977.13;;;11.41;86.83
26657;BME280;14279;50.010;8.260;2022-11-15T07:38:38;99985.44;;;11.48;87.08
26657;BME280;14279;50.010;8.260;2022-11-15T07:41:05;99982.56;;;11.53;86.73
26657;BME280;14279;50.010;8.260;2022-11-15T07:43:31;99982.97;;;11.61;86.03
26657;BME280;14279;50.010;8.260;2022-11-15T07:45:59;99977.19;;;11.56;85.79
26657;BME280;14279;50.010;8.260;2022-11-15T07:48:28;99980.13;;;11.50;85.69
26657;BME280;14279;50.010;8.260;2022-11-15T07:50:54;99985.75;;;11.58;85.44
26657;BME280;14279;50.010;8.260;2022-11-15T07:53:19;99986.84;;;11.54;85.43
26657;BME280;14279;50.010;8.260;2022-11-15T07:55:44;99987.28;;;11.46;86.05
26657;BME280;14279;50.010;8.260;2022-11-15T07:58:10;99989.78;;;11.48;85.71
26657;BME280;14279;50.010;8.260;2022-11-15T08:00:36;99991.47;;;11.49;85.66
26657;BME280;14279;50.010;8.260;2022-11-15T08:03:08;99990.97;;;11.58;85.40
26657;BME280;14279;50.010;8.260;2022-11-15T08:05:34;99990.53;;;11.66;85.29
26657;BME280;14279;50.010;8.260;2022-11-15T08:08:00;99986.66;;;11.73;84.60
26657;BME280;14279;50.010;8.260;2022-11-15T08:10:26;99971.59;;;11.78;84.22
26657;BME280;14279;50.010;8.260;2022-11-15T08:13:05;99965.34;;;11.81;84.39
26657;BME280;14279;50.010;8.260;2022-11-15T08:15:32;99975.44;;;11.87;84.33
26657;BME280;14279;50.010;8.260;2022-11-15T08:18:08;99972.53;;;11.92;83.75
26657;BME280;14279;50.010;8.260;2022-11-15T08:20:34;99965.47;;;11.94;83.54
26657;BME280;14279;50.010;8.260;2022-11-15T08:23:01;99973.19;;;11.95;83.85
26657;BME280;14279;50.010;8.260;2022-11-15T08:25:29;99970.38;;;12.00;83.58
26657;BME280;14279;50.010;8.260;2022-11-15T08:27:56;99969.94;;;12.08;83.29
26657;BME280;14279;50.010;8.260;2022-11-15T08:30:22;99974.09;;;12.10;83.00
26657;BME280;14279;50.010;8.260;2022-11-15T08:32:51;99970.22;;;12.17;82.67
26657;BME280;14279;50.010;8.260;2022-11-15T08:35:17;99972.53;;;12.22;82.34
26657;BME280;14279;50.010;8.260;2022-11-15T08:37:43;99967.31;;;12.22;82.25
26657;BME280;14279;50.010;8.260;2022-11-15T08:40:09;99970.78;;;12.23;82.31
26657;BME280;14279;50.010;8.260;2022-11-15T08:42:34;99963.03;;;12.21;82.44
26657;BME280;14279;50.010;8.260;2022-11-15T08:45:00;99969.28;;;12.18;82.52
26657;BME280;14279;50.010;8.260;2022-11-15T08:47:25;99968.34;;;12.20;82.94
26657;BME280;14279;50.010;8.260;2022-11-15T08:49:51;99961.34;;;12.20;82.97
26657;BME280;14279;50.010;8.260;2022-11-15T08:52:16;99966.69;;;12.18;83.17
26657;BME280;14279;50.010;8.260;2022-11-15T08:54:42;99963.03;;;12.21;83.42
26657;BME280;14279;50.010;8.260;2022-11-15T08:57:07;99962.03;;;12.24;83.56
26657;BME280;14279;50.010;8.260;2022-11-15T08:59:34;99959.50;;;12.22;84.29
26657;BME280;14279;50.010;8.260;2022-11-15T09:02:00;99958.28;;;12.13;84.82
26657;BME280;14279;50.010;8.260;2022-11-15T09:04:25;99963.03;;;12.07;85.44
26657;BME280;14279;50.010;8.260;2022-11-15T09:06:50;99966.38;;;12.09;85.70
26657;BME280;14279;50.010;8.260;2022-11-15T09:09:15;99961.91;;;12.11;85.59
26657;BME280;14279;50.010;8.260;2022-11-15T09:11:41;99955.94;;;12.09;86.07
26657;BME280;14279;50.010;8.260;2022-11-15T09:14:06;99956.31;;;12.17;85.95
26657;BME280;14279;50.010;8.260;2022-11-15T09:16:31;99947.19;;;12.24;85.67
26657;BME280;14279;50.010;8.260;2022-11-15T09:18:57;99943.19;;;12.33;85.47
26657;BME280;14279;50.010;8.260;2022-11-15T09:21:22;99950.38;;;12.44;85.75
26657;BME280;14279;50.010;8.260;2022-11-15T09:23:50;99948.44;;;12.47;85.18
26657;BME280;14279;50.010;8.260;2022-11-15T09:26:16;99955.16;;;12.52;84.75
26657;BME280;14279;50.010;8.260;2022-11-15T09:28:41;99957.66;;;12.53;84.82
26657;BME280;14279;50.010;8.260;2022-11-15T09:31:07;99943.13;;;12.63;84.62
26657;BME280;14279;50.010;8.260;2022-11-15T09:33:32;99953.47;;;12.65;84.56
26657;BME280;14279;50.010;8.260;2022-11-15T09:36:06;99947.75;;;12.73;84.55
26657;BME280;14279;50.010;8.260;2022-11-15T09:38:32;99955.69;;;12.57;84.49
26657;BME280;14279;50.010;8.260;2022-11-15T09:41:17;99951.03;;;12.62;84.61
26657;BME280;14279;50.010;8.260;2022-11-15T09:44:05;99942.38;;;12.61;84.57
26657;BME280;14279;50.010;8.260;2022-11-15T09:49:18;99926.88;;;12.58;85.01
26657;BME280;14279;50.010;8.260;2022-11-15T09:51:45;99927.47;;;12.63;84.73
26657;BME280;14279;50.010;8.260;2022-11-15T09:54:32;99929.66;;;12.70;84.57
26657;BME280;14279;50.010;8.260;2022-11-15T09:57:13;99929.47;;;12.73;84.55
26657;BME280;14279;50.010;8.260;2022-11-15T10:00:21;99931.06;;;12.75;84.27
26657;BME280;14279;50.010;8.260;2022-11-15T10:05:26;99934.97;;;12.83;84.35
26657;BME280;14279;50.010;8.260;2022-11-15T10:08:05;99937.00;;;12.92;84.04
26657;BME280;14279;50.010;8.260;2022-11-15T10:10:39;99934.13;;;12.82;84.66
26657;BME280;14279;50.010;8.260;2022-11-15T10:13:33;99933.34;;;12.95;84.22
26657;BME280;14279;50.010;8.260;2022-11-15T10:16:21;99927.56;;;13.04;83.65
26657;BME280;14279;50.010;8.260;2022-11-15T10:19:07;99928.50;;;13.03;83.57
26657;BME280;14279;50.010;8.260;2022-11-15T10:24:38;99915.38;;;13.17;83.21
26657;BME280;14279;50.010;8.260;2022-11-15T10:27:23;99923.50;;;13.13;83.01
26657;BME280;14279;50.010;8.260;2022-11-15T10:29:49;99915.91;;;13.22;82.41
26657;BME280;14279;50.010;8.260;2022-11-15T10:32:20;99908.44;;;13.31;81.68
26657;BME280;14279;50.010;8.260;2022-11-15T10:34:47;99905.47;;;13.22;81.92
26657;BME280;14279;50.010;8.260;2022-11-15T10:37:12;99897.47;;;13.38;81.36
26657;BME280;14279;50.010;8.260;2022-11-15T10:39:38;99889.25;;;13.45;81.18
26657;BME280;14279;50.010;8.260;2022-11-15T10:42:26;99886.91;;;13.67;80.00
26657;BME280;14279;50.010;8.260;2022-11-15T10:44:52;99877.47;;;13.65;80.08
26657;BME280;14279;50.010;8.260;2022-11-15T10:47:24;99879.25;;;13.64;80.56
26657;BME280;14279;50.010;8.260;2022-11-15T10:49:59;99873.47;;;13.59;80.64
26657;BME280;14279;50.010;8.260;2022-11-15T10:52:25;99864.16;;;13.55;80.85
26657;BME280;14279;50.010;8.260;2022-11-15T10:57:38;99849.22;;;13.57;80.51
26657;BME280;14279;50.010;8.260;2022-11-15T11:02:39;99837.94;;;13.57;80.30
26657;BME280;14279;50.010;8.260;2022-11-15T11:05:27;99834.81;;;13.77;79.67
26657;BME280;14279;50.010;8.260;2022-11-15T11:07:58;99822.53;;;13.78;79.75
26657;BME280;14279;50.010;8.260;2022-11-15T11:10:25;99819.84;;;13.66;80.31
26657;BME280;14279;50.010;8.260;2022-11-15T11:12:50;99813.66;;;13.55;80.73
26657;BME280;14279;50.010;8.260;2022-11-15T11:15:17;99817.28;;;13.52;81.18
26657;BME280;14279;50.010;8.260;2022-11-15T11:18:05;99815.63;;;13.64;80.92
26657;BME280;14279;50.010;8.260;2022-11-15T11:25:50;99805.28;;;13.75;80.90
26657;BME280;14279;50.010;8.260;2022-11-15T11:31:14;99801.00;;;13.87;79.91
26657;BME280;14279;50.010;8.260;2022-11-15T11:34:09;99812.19;;;13.89;79.51
26657;BME280;14279;50.010;8.260;2022-11-15T11:36:44;99810.09;;;13.81;80.10
26657;BME280;14279;50.010;8.260;2022-11-15T11:47:40;99792.72;;;14.06;78.37
26657;BME280;14279;50.010;8.260;2022-11-15T11:53:15;99788.91;;;14.10;77.08
26657;BME280;14279;50.010;8.260;2022-11-15T11:55:47;99785.75;;;14.31;76.69
26657;BME280;14279;50.010;8.260;2022-11-15T11:58:34;99784.84;;;14.19;76.49
26657;BME280;14279;50.010;8.260;2022-11-15T12:01:12;99775.75;;;13.99;76.91
26657;BME280;14279;50.010;8.260;2022-11-15T12:03:46;99767.03;;;14.11;76.11
26657;BME280;14279;50.010;8.260;2022-11-15T12:06:23;99771.50;;;14.22;75.91
26657;BME280;14279;50.010;8.260;2022-11-15T12:08:58;99775.03;;;14.34;75.71
26657;BME280;14279;50.010;8.260;2022-11-15T12:14:16;99763.56;;;14.24;76.15
26657;BME280;14279;50.010;8.260;2022-11-15T12:16:46;99764.53;;;14.10;77.27
26657;BME280;14279;50.010;8.260;2022-11-15T12:19:11;99759.34;;;14.21;76.81
26657;BME280;14279;50.010;8.260;2022-11-15T12:21:47;99754.97;;;14.22;77.16
26657;BME280;14279;50.010;8.260;2022-11-15T12:24:18;99756.81;;;14.33;76.58
26657;BME280;14279;50.010;8.260;2022-11-15T12:26:51;99742.16;;;13.93;77.94
26657;BME280;14279;50.010;8.260;2022-11-15T12:29:28;99740.44;;;13.67;79.44
26657;BME280;14279;50.010;8.260;2022-11-15T12:31:57;99737.47;;;13.85;79.14
26657;BME280;14279;50.010;8.260;2022-11-15T12:36:53;99731.25;;;14.36;77.16
26657;BME280;14279;50.010;8.260;2022-11-15T12:39:18;99728.69;;;14.23;77.56
26657;BME280;14279;50.010;8.260;2022-11-15T12:49:43;99715.31;;;14.39;77.09
26657;BME280;14279;50.010;8.260;2022-11-15T12:52:09;99715.09;;;14.42;76.38
26657;BME280;14279;50.010;8.260;2022-11-15T13:00:00;99693.34;;;13.80;78.18
26657;BME280;14279;50.010;8.260;2022-11-15T13:02:45;99692.72;;;13.64;79.08
26657;BME280;14279;50.010;8.260;2022-11-15T13:17:49;99675.88;;;13.68;79.30
26657;BME280;14279;50.010;8.260;2022-11-15T13:33:31;99658.31;;;14.07;77.12
26657;BME280;14279;50.010;8.260;2022-11-15T13:36:00;99658.72;;;14.01;77.92
26657;BME280;14279;50.010;8.260;2022-11-15T13:38:35;99650.03;;;14.01;77.80
26657;BME280;14279;50.010;8.260;2022-11-15T13:41:14;99653.63;;;13.87;78.27
26657;BME280;14279;50.010;8.260;2022-11-15T13:43:41;99643.53;;;13.69;79.06
26657;BME280;14279;50.010;8.260;2022-11-15T13:46:15;99645.75;;;13.62;79.95
26657;BME280;14279;50.010;8.260;2022-11-15T13:48:42;99630.91;;;13.50;80.29
26657;BME280;14279;50.010;8.260;2022-11-15T13:53:56;99618.84;;;13.73;79.83
26657;BME280;14279;50.010;8.260;2022-11-15T13:56:23;99607.06;;;13.92;79.26
26657;BME280;14279;50.010;8.260;2022-11-15T13:58:49;99608.63;;;13.94;78.75
26657;BME280;14279;50.010;8.260;2022-11-15T14:01:18;99606.72;;;13.96;79.00
26657;BME280;14279;50.010;8.260;2022-11-15T14:03:57;99597.88;;;13.86;78.90
26657;BME280;14279;50.010;8.260;2022-11-15T14:06:25;99606.16;;;13.80;79.29
26657;BME280;14279;50.010;8.260;2022-11-15T14:09:15;99605.88;;;13.96;78.84
26657;BME280;14279;50.010;8.260;2022-11-15T14:11:55;99608.16;;;13.76;79.46
26657;BME280;14279;50.010;8.260;2022-11-15T14:14:28;99609.50;;;13.82;79.42
26657;BME280;14279;50.010;8.260;2022-11-15T14:16:56;99599.22;;;13.92;78.92
26657;BME280;14279;50.010;8.260;2022-11-15T14:22:16;99595.19;;;13.75;79.85
26657;BME280;14279;50.010;8.260;2022-11-15T14:24:44;99594.25;;;13.76;79.64
26657;BME280;14279;50.010;8.260;2022-11-15T14:27:27;99587.47;;;13.73;80.25
26657;BME280;14279;50.010;8.260;2022-11-15T14:29:53;99580.13;;;13.78;80.25
26657;BME280;14279;50.010;8.260;2022-11-15T14:32:23;99576.56;;;13.79;80.40
26657;BME280;14279;50.010;8.260;2022-11-15T14:34:49;99568.22;;;13.74;81.19
26657;BME280;14279;50.010;8.260;2022-11-15T14:37:24;99561.53;;;13.70;81.83
26657;BME280;14279;50.010;8.260;2022-11-15T14:39:50;99564.25;;;13.68;82.22
26657;BME280;14279;50.010;8.260;2022-11-15T14:42:16;99563.41;;;13.68;82.27
26657;BME280;14279;50.010;8.260;2022-11-15T14:44:41;99552.56;;;13.61;82.75
26657;BME280;14279;50.010;8.260;2022-11-15T14:47:07;99542.72;;;13.65;82.86
26657;BME280;14279;50.010;8.260;2022-11-15T14:49:34;99546.78;;;13.69;82.42
26657;BME280;14279;50.010;8.260;2022-11-15T14:52:02;99527.00;;;13.65;82.52
26657;BME280;14279;50.010;8.260;2022-11-15T14:54:29;99526.53;;;13.60;83.06